createdAt,value
2023-05-25T00:01:03.611Z,2.30
2023-05-25T00:03:32.405Z,1.50
2023-05-25T00:06:03.276Z,2.15
2023-05-25T00:08:30.318Z,1.35
2023-05-25T00:10:57.249Z,1.63
2023-05-25T00:13:24.617Z,2.72
2023-05-25T00:15:51.622Z,1.60
2023-05-25T00:18:19.004Z,2.38
2023-05-25T00:20:47.834Z,1.83
2023-05-25T00:23:15.023Z,2.10
2023-05-25T00:25:42.230Z,2.58
2023-05-25T00:28:11.091Z,1.95
2023-05-25T00:30:38.151Z,2.28
2023-05-25T00:33:05.437Z,2.17
2023-05-25T00:35:32.385Z,2.33
2023-05-25T00:37:59.320Z,1.98
2023-05-25T00:40:26.265Z,2.30
2023-05-25T00:42:53.685Z,2.40
2023-05-25T00:45:20.634Z,2.88
2023-05-25T00:47:52.078Z,2.25
2023-05-25T00:50:40.842Z,2.15
2023-05-25T00:53:09.925Z,2.22
2023-05-25T00:55:46.442Z,2.65
2023-05-25T00:58:17.395Z,2.28
2023-05-25T01:00:46.234Z,2.45
2023-05-25T01:03:17.965Z,2.20
2023-05-25T01:05:48.614Z,2.40
2023-05-25T01:08:21.462Z,2.60
2023-05-25T01:10:50.352Z,2.53
2023-05-25T01:13:20.298Z,2.63
2023-05-25T01:15:48.649Z,2.15
2023-05-25T01:18:18.154Z,2.28
2023-05-25T01:20:54.601Z,1.80
2023-05-25T01:23:30.879Z,2.08
2023-05-25T01:26:02.831Z,2.10
2023-05-25T01:28:36.190Z,2.88
2023-05-25T01:31:03.524Z,2.80
2023-05-25T01:33:32.691Z,3.10
2023-05-25T01:36:01.015Z,3.05
2023-05-25T01:38:27.930Z,2.58
2023-05-25T01:40:54.863Z,2.15
2023-05-25T01:43:22.805Z,2.45
2023-05-25T01:45:50.238Z,2.58
2023-05-25T01:48:21.900Z,2.05
2023-05-25T01:50:59.891Z,3.35
2023-05-25T01:53:55.022Z,2.55
2023-05-25T01:56:23.443Z,1.30
2023-05-25T01:58:51.591Z,2.05
2023-05-25T02:01:20.438Z,2.20
2023-05-25T02:03:50.888Z,2.35
2023-05-25T02:06:18.007Z,2.03
2023-05-25T02:08:45.987Z,2.97
2023-05-25T02:11:16.688Z,2.03
2023-05-25T02:13:43.598Z,2.53
2023-05-25T02:16:10.716Z,2.40
2023-05-25T02:18:37.674Z,2.85
2023-05-25T02:21:04.677Z,2.58
2023-05-25T02:23:31.610Z,1.98
2023-05-25T02:25:58.530Z,2.30
2023-05-25T02:28:25.392Z,2.50
2023-05-25T02:30:52.340Z,3.50
2023-05-25T02:33:19.204Z,2.33
2023-05-25T02:35:46.584Z,2.83
2023-05-25T02:38:14.152Z,2.60
2023-05-25T02:40:41.059Z,2.60
2023-05-25T02:43:07.935Z,2.33
2023-05-25T02:45:35.038Z,2.80
2023-05-25T02:48:01.956Z,2.25
2023-05-25T02:50:28.904Z,2.75
2023-05-25T02:52:55.873Z,2.72
2023-05-25T02:55:23.229Z,2.58
2023-05-25T02:57:50.138Z,3.20
2023-05-25T03:00:17.431Z,3.13
2023-05-25T03:02:47.041Z,2.00
2023-05-25T03:05:13.947Z,2.88
2023-05-25T03:07:41.371Z,2.88
2023-05-25T03:10:08.742Z,2.38
2023-05-25T03:12:35.651Z,2.80
2023-05-25T03:15:02.528Z,2.55
2023-05-25T03:17:29.412Z,2.78
2023-05-25T03:19:56.391Z,2.85
2023-05-25T03:22:23.274Z,2.47
2023-05-25T03:24:50.479Z,2.17
2023-05-25T03:27:17.371Z,2.25
2023-05-25T03:29:44.230Z,2.72
2023-05-25T03:32:11.139Z,2.58
2023-05-25T03:34:38.077Z,2.45
2023-05-25T03:37:05.305Z,3.42
2023-05-25T03:39:32.221Z,3.97
2023-05-25T03:41:59.152Z,3.13
2023-05-25T03:44:26.020Z,3.58
2023-05-25T03:46:52.937Z,3.20
2023-05-25T03:49:19.831Z,2.67
2023-05-25T03:51:46.730Z,3.00
2023-05-25T03:54:13.921Z,2.83
2023-05-25T03:56:41.003Z,3.03
2023-05-25T03:59:07.973Z,3.40
2023-05-25T04:01:38.286Z,3.40
2023-05-25T04:04:06.396Z,4.05
2023-05-25T04:06:34.207Z,4.13
2023-05-25T04:09:01.544Z,3.40
2023-05-25T04:11:29.417Z,4.10
2023-05-25T04:13:56.474Z,3.90
2023-05-25T04:16:23.769Z,3.67
2023-05-25T04:18:50.712Z,4.03
2023-05-25T04:21:17.594Z,4.07
2023-05-25T04:23:44.480Z,4.00
2023-05-25T04:26:11.639Z,2.95
2023-05-25T04:28:41.123Z,3.45
2023-05-25T04:31:09.421Z,2.97
2023-05-25T04:33:38.956Z,2.95
2023-05-25T04:36:06.917Z,3.53
2023-05-25T04:38:33.767Z,3.42
2023-05-25T04:41:02.412Z,4.07
2023-05-25T04:43:32.482Z,3.35
2023-05-25T04:46:00.311Z,4.85
2023-05-25T04:48:32.695Z,3.40
2023-05-25T04:51:03.270Z,3.92
2023-05-25T04:53:30.418Z,4.45
2023-05-25T04:55:57.904Z,2.90
2023-05-25T04:58:25.273Z,4.07
2023-05-25T05:00:52.778Z,3.28
2023-05-25T05:03:19.956Z,3.78
2023-05-25T05:05:46.953Z,5.07
2023-05-25T05:08:14.130Z,4.40
2023-05-25T05:10:41.052Z,4.50
2023-05-25T05:13:07.939Z,3.78
2023-05-25T05:15:34.796Z,4.40
2023-05-25T05:18:01.679Z,4.13
2023-05-25T05:20:28.610Z,4.35
2023-05-25T05:22:55.574Z,4.38
2023-05-25T05:25:22.420Z,4.28
2023-05-25T05:27:49.291Z,4.07
2023-05-25T05:30:16.408Z,3.78
2023-05-25T05:32:45.250Z,3.85
2023-05-25T05:35:13.406Z,4.05
2023-05-25T05:37:40.371Z,4.55
2023-05-25T05:40:08.105Z,4.70
2023-05-25T05:42:35.083Z,6.05
2023-05-25T05:45:01.938Z,4.78
2023-05-25T05:47:28.868Z,5.47
2023-05-25T05:49:55.777Z,5.55
2023-05-25T05:52:23.137Z,7.93
2023-05-25T05:54:49.992Z,6.60
2023-05-25T05:57:16.847Z,6.43
2023-05-25T05:59:43.788Z,6.30
2023-05-25T06:02:10.722Z,5.93
2023-05-25T06:04:38.638Z,8.10
2023-05-25T06:07:05.913Z,8.10
2023-05-25T06:09:32.798Z,8.13
2023-05-25T06:11:59.691Z,7.85
2023-05-25T06:14:28.552Z,8.77
2023-05-25T06:16:55.909Z,8.23
2023-05-25T06:19:22.840Z,8.68
2023-05-25T06:21:49.718Z,8.98
2023-05-25T06:24:16.731Z,8.77
2023-05-25T06:26:43.593Z,8.65
2023-05-25T06:29:10.467Z,8.40
2023-05-25T06:31:37.371Z,7.50
2023-05-25T06:34:04.235Z,7.30
2023-05-25T06:36:32.364Z,7.25
2023-05-25T06:38:59.276Z,6.60
2023-05-25T06:41:26.396Z,6.50
2023-05-25T06:43:53.397Z,6.47
2023-05-25T06:46:20.323Z,6.60
2023-05-25T06:48:47.648Z,5.97
2023-05-25T06:51:14.769Z,5.68
2023-05-25T06:53:41.726Z,6.28
2023-05-25T06:56:08.641Z,7.60
2023-05-25T06:58:35.584Z,8.32
2023-05-25T07:01:03.106Z,7.40
2023-05-25T07:03:30.438Z,7.40
2023-05-25T07:05:58.380Z,7.20
2023-05-25T07:08:25.262Z,6.57
2023-05-25T07:10:52.119Z,7.32
2023-05-25T07:13:19.030Z,5.80
2023-05-25T07:15:46.248Z,7.53
2023-05-25T07:18:13.552Z,6.32
2023-05-25T07:20:44.478Z,6.38
2023-05-25T07:23:12.347Z,6.95
2023-05-25T07:25:40.243Z,7.22
2023-05-25T07:28:08.066Z,6.43
2023-05-25T07:30:35.199Z,6.25
2023-05-25T07:33:02.303Z,7.32
2023-05-25T07:35:29.350Z,6.45
2023-05-25T07:37:59.919Z,6.70
2023-05-25T07:40:27.730Z,6.38
2023-05-25T07:42:54.942Z,6.50
2023-05-25T07:45:22.130Z,6.70
2023-05-25T07:47:49.371Z,7.20
2023-05-25T07:50:16.495Z,6.70
2023-05-25T07:52:43.431Z,7.40
2023-05-25T07:55:10.734Z,6.05
2023-05-25T07:57:37.742Z,5.95
2023-05-25T08:00:08.503Z,6.65
2023-05-25T08:02:35.479Z,6.68
2023-05-25T08:05:06.067Z,6.72
2023-05-25T08:07:34.341Z,6.05
2023-05-25T08:10:02.051Z,6.28
2023-05-25T08:12:47.163Z,6.95
2023-05-25T08:15:16.826Z,6.45
2023-05-25T08:17:44.012Z,7.63
2023-05-25T08:20:12.090Z,6.10
2023-05-25T08:22:39.025Z,6.80
2023-05-25T08:25:07.080Z,6.75
2023-05-25T08:27:36.083Z,6.70
2023-05-25T08:30:06.269Z,6.95
2023-05-25T08:32:33.356Z,7.18
2023-05-25T08:35:02.194Z,6.45
2023-05-25T08:37:29.594Z,8.13
2023-05-25T08:39:56.664Z,6.93
2023-05-25T08:42:24.124Z,6.75
2023-05-25T08:44:51.064Z,6.47
2023-05-25T08:47:19.735Z,6.60
2023-05-25T08:49:46.876Z,6.43
2023-05-25T08:52:22.788Z,6.55
2023-05-25T08:54:51.835Z,6.30
2023-05-25T08:57:46.670Z,6.70
2023-05-25T09:00:15.938Z,6.03
2023-05-25T09:02:56.474Z,6.45
2023-05-25T09:05:24.376Z,6.15
2023-05-25T09:07:51.853Z,7.13
2023-05-25T09:10:19.142Z,6.82
2023-05-25T09:12:46.885Z,5.25
2023-05-25T09:15:13.797Z,6.65
2023-05-25T09:17:41.734Z,6.47
2023-05-25T09:20:14.108Z,7.32
2023-05-25T09:22:42.509Z,7.25
2023-05-25T09:25:11.738Z,7.72
2023-05-25T09:27:38.856Z,6.68
2023-05-25T09:30:06.892Z,7.85
2023-05-25T09:32:33.954Z,7.95
2023-05-25T09:35:15.215Z,8.35
2023-05-25T09:37:44.242Z,7.82
2023-05-25T09:40:11.790Z,9.05
2023-05-25T09:42:39.356Z,6.97
2023-05-25T09:45:07.177Z,6.78
2023-05-25T09:47:36.888Z,7.93
2023-05-25T09:50:04.516Z,7.07
2023-05-25T09:52:31.760Z,11.30
2023-05-25T09:54:58.648Z,7.78
2023-05-25T09:57:27.408Z,6.07
2023-05-25T09:59:54.370Z,8.10
2023-05-25T10:02:21.612Z,6.13
2023-05-25T10:04:48.828Z,7.20
2023-05-25T10:07:16.419Z,7.07
2023-05-25T10:09:46.774Z,5.97
2023-05-25T10:12:20.521Z,6.93
2023-05-25T10:14:51.490Z,6.88
2023-05-25T10:17:23.906Z,7.65
2023-05-25T10:20:01.192Z,6.18
2023-05-25T10:23:01.472Z,6.35
2023-05-25T10:25:34.958Z,7.22
2023-05-25T10:28:28.264Z,5.78
2023-05-25T10:30:58.058Z,7.03
2023-05-25T10:33:25.267Z,6.22
2023-05-25T10:36:03.056Z,6.85
2023-05-25T10:38:39.963Z,6.70
2023-05-25T10:41:09.791Z,6.70
2023-05-25T10:43:41.478Z,7.10
2023-05-25T10:46:09.132Z,6.30
2023-05-25T10:48:40.288Z,5.55
2023-05-25T10:51:09.357Z,7.32
2023-05-25T10:53:38.657Z,7.30
2023-05-25T10:56:10.853Z,7.15
2023-05-25T10:58:46.709Z,6.70
2023-05-25T11:01:16.256Z,6.38
2023-05-25T11:03:58.465Z,6.07
2023-05-25T11:06:37.931Z,7.25
2023-05-25T11:09:06.749Z,6.57
2023-05-25T11:11:42.328Z,6.80
2023-05-25T11:14:32.040Z,7.22
2023-05-25T11:17:19.324Z,7.32
2023-05-25T11:19:53.286Z,6.63
2023-05-25T11:22:30.996Z,6.90
2023-05-25T11:25:03.167Z,6.82
2023-05-25T11:27:32.298Z,6.70
2023-05-25T11:30:00.508Z,7.32
2023-05-25T11:32:28.563Z,6.65
2023-05-25T11:34:57.639Z,8.15
2023-05-25T11:37:29.097Z,8.23
2023-05-25T11:39:56.225Z,6.95
2023-05-25T11:42:25.002Z,7.75
2023-05-25T11:44:52.200Z,6.38
2023-05-25T11:47:25.358Z,5.22
2023-05-25T11:49:55.390Z,6.75
2023-05-25T11:52:23.165Z,5.93
2023-05-25T11:54:50.088Z,5.93
2023-05-25T11:57:25.152Z,7.03
2023-05-25T12:00:02.160Z,6.75
2023-05-25T12:02:39.103Z,6.03
2023-05-25T12:05:08.738Z,6.05
2023-05-25T12:07:44.417Z,5.55
2023-05-25T12:10:14.239Z,6.85
2023-05-25T12:13:02.532Z,6.22
2023-05-25T12:15:30.058Z,6.60
2023-05-25T12:17:57.192Z,7.40
2023-05-25T12:20:24.540Z,6.70
2023-05-25T12:22:51.525Z,6.45
2023-05-25T12:25:22.707Z,6.88
2023-05-25T12:27:49.983Z,6.10
2023-05-25T12:30:17.034Z,6.25
2023-05-25T12:33:04.491Z,6.57
2023-05-25T12:35:48.477Z,6.53
2023-05-25T12:38:18.782Z,5.95
2023-05-25T12:40:46.187Z,6.50
2023-05-25T12:43:14.491Z,7.32
2023-05-25T12:45:44.790Z,6.57
2023-05-25T12:48:12.242Z,6.82
2023-05-25T12:50:39.225Z,7.65
2023-05-25T12:53:06.328Z,6.13
2023-05-25T12:55:35.991Z,6.38
2023-05-25T12:58:07.694Z,6.63
2023-05-25T13:00:39.611Z,7.25
2023-05-25T13:03:08.067Z,7.88
2023-05-25T13:05:37.775Z,7.03
2023-05-25T13:08:07.154Z,7.13
2023-05-25T13:10:37.353Z,7.40
2023-05-25T13:13:05.009Z,6.97
2023-05-25T13:15:32.106Z,5.75
2023-05-25T13:17:59.136Z,6.88
2023-05-25T13:20:27.468Z,6.78
2023-05-25T13:22:57.543Z,6.80
2023-05-25T13:25:27.437Z,6.82
2023-05-25T13:27:55.237Z,7.38
2023-05-25T13:30:22.447Z,6.10
2023-05-25T13:32:51.682Z,6.40
2023-05-25T13:35:23.620Z,5.88
2023-05-25T13:37:51.847Z,6.53
2023-05-25T13:40:19.236Z,6.63
2023-05-25T13:42:46.231Z,5.90
2023-05-25T13:45:13.899Z,7.00
2023-05-25T13:47:43.740Z,6.47
2023-05-25T13:50:11.552Z,6.75
2023-05-25T13:52:38.447Z,5.25
2023-05-25T13:55:05.990Z,5.90
2023-05-25T13:57:32.851Z,6.10
2023-05-25T13:59:59.690Z,6.72
2023-05-25T14:02:26.841Z,5.05
2023-05-25T14:04:53.874Z,5.65
2023-05-25T14:07:24.075Z,5.63
2023-05-25T14:09:50.926Z,4.75
2023-05-25T14:12:17.830Z,5.60
2023-05-25T14:14:44.671Z,5.80
2023-05-25T14:17:11.507Z,6.45
2023-05-25T14:19:38.383Z,5.72
2023-05-25T14:22:13.295Z,5.07
2023-05-25T14:24:42.024Z,4.72
2023-05-25T14:27:09.379Z,5.22
2023-05-25T14:29:37.140Z,5.22
2023-05-25T14:32:04.356Z,5.18
2023-05-25T14:34:31.224Z,6.38
2023-05-25T14:36:58.084Z,5.07
2023-05-25T14:39:25.053Z,5.50
2023-05-25T14:41:52.169Z,4.88
2023-05-25T14:44:19.029Z,5.13
2023-05-25T14:46:46.480Z,5.22
2023-05-25T14:49:13.973Z,4.78
2023-05-25T14:51:40.927Z,5.57
2023-05-25T14:54:08.123Z,5.50
2023-05-25T14:56:35.268Z,5.80
2023-05-25T14:59:02.191Z,5.68
2023-05-25T15:01:29.764Z,4.30
2023-05-25T15:03:57.127Z,5.95
2023-05-25T15:06:24.169Z,4.65
2023-05-25T15:08:51.355Z,5.35
2023-05-25T15:11:18.757Z,4.78
2023-05-25T15:13:46.138Z,4.93
2023-05-25T15:16:14.637Z,4.88
2023-05-25T15:18:41.750Z,5.05
2023-05-25T15:21:08.804Z,4.85
2023-05-25T15:23:36.096Z,4.85
2023-05-25T15:26:07.904Z,5.22
2023-05-25T15:28:35.113Z,4.43
2023-05-25T15:31:03.301Z,4.25
2023-05-25T15:33:49.589Z,4.93
2023-05-25T15:36:20.066Z,3.47
2023-05-25T15:38:49.571Z,4.22
2023-05-25T15:41:17.656Z,4.85
2023-05-25T15:43:58.105Z,4.63
2023-05-25T15:46:25.391Z,4.82
2023-05-25T15:48:52.287Z,5.10
2023-05-25T15:51:19.199Z,4.78
2023-05-25T15:53:47.366Z,4.38
2023-05-25T15:56:14.245Z,3.88
2023-05-25T15:58:41.131Z,4.03
2023-05-25T16:01:08.091Z,4.95
2023-05-25T16:03:35.036Z,4.20
2023-05-25T16:06:02.513Z,4.00
2023-05-25T16:08:29.405Z,4.60
2023-05-25T16:10:56.306Z,3.55
2023-05-25T16:13:23.173Z,3.63
2023-05-25T16:15:50.146Z,4.00
2023-05-25T16:18:17.023Z,3.92
2023-05-25T16:20:44.291Z,3.78
2023-05-25T16:23:11.342Z,4.55
2023-05-25T16:25:38.326Z,3.70
2023-05-25T16:28:05.247Z,4.38
2023-05-25T16:30:32.143Z,3.88
2023-05-25T16:32:59.054Z,3.40
2023-05-25T16:35:25.953Z,3.78
2023-05-25T16:37:52.844Z,3.92
2023-05-25T16:40:19.670Z,3.83
2023-05-25T16:42:46.541Z,3.95
2023-05-25T16:45:13.426Z,3.83
2023-05-25T16:47:40.297Z,3.67
2023-05-25T16:50:08.265Z,3.72
2023-05-25T16:52:35.852Z,4.10
2023-05-25T16:55:02.770Z,3.65
2023-05-25T16:57:29.719Z,4.38
2023-05-25T16:59:56.571Z,3.78
2023-05-25T17:02:23.526Z,3.80
2023-05-25T17:04:53.258Z,3.78
2023-05-25T17:07:20.157Z,4.00
2023-05-25T17:09:47.035Z,4.07
2023-05-25T17:12:13.932Z,4.20
2023-05-25T17:14:40.806Z,4.32
2023-05-25T17:17:07.652Z,4.18
2023-05-25T17:19:34.924Z,3.70
2023-05-25T17:22:01.769Z,3.45
2023-05-25T17:24:28.614Z,3.58
2023-05-25T17:26:55.593Z,4.07
2023-05-25T17:29:22.741Z,3.22
2023-05-25T17:31:50.291Z,3.83
2023-05-25T17:34:17.379Z,3.97
2023-05-25T17:36:44.294Z,3.60
2023-05-25T17:39:11.231Z,3.45
2023-05-25T17:41:38.118Z,3.70
2023-05-25T17:44:05.041Z,4.15
2023-05-25T17:46:32.119Z,3.30
2023-05-25T17:48:59.036Z,4.07
2023-05-25T17:51:25.950Z,3.47
2023-05-25T17:53:52.904Z,3.65
2023-05-25T17:56:19.758Z,4.00
2023-05-25T17:58:47.969Z,4.00
2023-05-25T18:01:16.134Z,4.00
2023-05-25T18:03:43.273Z,3.25
2023-05-25T18:06:10.404Z,4.30
2023-05-25T18:08:37.331Z,5.05
2023-05-25T18:11:04.349Z,4.82
2023-05-25T18:13:32.069Z,3.80
2023-05-25T18:16:00.175Z,3.97
2023-05-25T18:18:27.005Z,4.45
2023-05-25T18:20:53.903Z,4.00
2023-05-25T18:23:22.410Z,3.67
2023-05-25T18:25:49.367Z,4.40
2023-05-25T18:28:16.390Z,4.43
2023-05-25T18:30:43.379Z,3.58
2023-05-25T18:33:10.885Z,3.92
2023-05-25T18:35:38.375Z,4.50
2023-05-25T18:38:06.857Z,3.58
2023-05-25T18:40:33.874Z,4.03
2023-05-25T18:43:00.813Z,5.45
2023-05-25T18:45:27.742Z,5.20
2023-05-25T18:47:54.741Z,4.43
2023-05-25T18:50:21.926Z,4.18
2023-05-25T18:52:51.386Z,4.43
2023-05-25T18:55:19.293Z,4.53
2023-05-25T18:57:47.008Z,3.60
2023-05-25T19:00:14.809Z,5.20
2023-05-25T19:02:41.900Z,4.22
2023-05-25T19:05:11.948Z,3.70
2023-05-25T19:07:58.470Z,4.28
2023-05-25T19:10:26.558Z,4.03
2023-05-25T19:12:53.476Z,3.88
2023-05-25T19:15:20.445Z,4.45
2023-05-25T19:17:47.433Z,3.47
2023-05-25T19:20:14.574Z,4.28
2023-05-25T19:22:42.089Z,3.80
2023-05-25T19:25:09.317Z,3.60
2023-05-25T19:27:36.649Z,4.30
2023-05-25T19:30:05.787Z,3.63
2023-05-25T19:32:32.817Z,3.80
2023-05-25T19:34:59.801Z,4.28
2023-05-25T19:37:26.855Z,4.15
2023-05-25T19:39:53.971Z,4.00
2023-05-25T19:42:20.881Z,3.70
2023-05-25T19:44:47.734Z,4.03
2023-05-25T19:47:14.734Z,4.47
2023-05-25T19:49:41.710Z,4.22
2023-05-25T19:52:08.683Z,4.05
2023-05-25T19:54:35.674Z,4.32
2023-05-25T19:57:03.083Z,3.53
2023-05-25T19:59:31.548Z,4.13
2023-05-25T20:01:58.735Z,3.47
2023-05-25T20:04:25.979Z,4.05
2023-05-25T20:06:54.363Z,3.70
2023-05-25T20:09:29.996Z,3.65
2023-05-25T20:12:00.236Z,4.15
2023-05-25T20:14:27.362Z,4.20
2023-05-25T20:16:56.940Z,3.80
2023-05-25T20:19:23.797Z,4.13
2023-05-25T20:21:51.292Z,3.78
2023-05-25T20:24:18.404Z,3.67
2023-05-25T20:26:45.371Z,3.83
2023-05-25T20:29:12.305Z,3.85
2023-05-25T20:31:39.335Z,4.07
2023-05-25T20:34:06.579Z,4.05
2023-05-25T20:36:33.445Z,3.78
2023-05-25T20:39:00.605Z,4.63
2023-05-25T20:41:27.578Z,4.00
2023-05-25T20:43:54.511Z,4.03
2023-05-25T20:46:21.560Z,4.63
2023-05-25T20:48:48.523Z,4.40
2023-05-25T20:51:15.492Z,4.13
2023-05-25T20:53:42.360Z,4.38
2023-05-25T20:56:09.273Z,4.50
2023-05-25T20:58:37.676Z,4.47
2023-05-25T21:01:04.742Z,4.72
2023-05-25T21:03:31.862Z,4.85
2023-05-25T21:05:58.822Z,5.22
2023-05-25T21:08:25.783Z,4.88
2023-05-25T21:10:52.722Z,5.40
2023-05-25T21:13:19.654Z,5.03
2023-05-25T21:15:46.822Z,4.53
2023-05-25T21:18:13.896Z,4.82
2023-05-25T21:20:40.860Z,5.80
2023-05-25T21:23:07.912Z,4.82
2023-05-25T21:25:34.839Z,4.63
2023-05-25T21:28:01.707Z,4.82
2023-05-25T21:30:28.648Z,4.25
2023-05-25T21:32:55.735Z,4.07
2023-05-25T21:35:22.717Z,4.10
2023-05-25T21:37:49.655Z,4.30
2023-05-25T21:40:16.651Z,4.45
2023-05-25T21:42:43.521Z,4.47
2023-05-25T21:45:10.592Z,4.43
2023-05-25T21:47:37.479Z,4.07
2023-05-25T21:50:04.854Z,3.92
2023-05-25T21:52:31.748Z,4.68
2023-05-25T21:54:58.729Z,5.18
2023-05-25T21:57:25.726Z,4.05
2023-05-25T21:59:52.626Z,5.63
2023-05-25T22:02:20.772Z,4.82
2023-05-25T22:04:47.674Z,4.40
2023-05-25T22:07:14.583Z,5.00
2023-05-25T22:09:41.449Z,4.65
2023-05-25T22:12:10.510Z,4.03
2023-05-25T22:14:37.358Z,5.72
2023-05-25T22:17:04.552Z,3.85
2023-05-25T22:19:31.511Z,4.78
2023-05-25T22:21:58.604Z,5.18
2023-05-25T22:24:25.565Z,4.47
2023-05-25T22:26:52.839Z,4.95
2023-05-25T22:29:19.720Z,5.80
2023-05-25T22:31:46.602Z,4.65
2023-05-25T22:34:13.561Z,5.15
2023-05-25T22:36:40.457Z,5.32
2023-05-25T22:39:07.320Z,4.38
2023-05-25T22:41:34.175Z,4.28
2023-05-25T22:44:01.046Z,4.88
2023-05-25T22:46:27.922Z,5.22
2023-05-25T22:48:54.776Z,4.97
2023-05-25T22:51:22.570Z,4.72
2023-05-25T22:53:49.671Z,4.50
2023-05-25T22:56:16.567Z,4.18
2023-05-25T22:58:43.438Z,4.07
2023-05-25T23:01:10.310Z,4.60
2023-05-25T23:03:37.328Z,4.70
2023-05-25T23:06:04.265Z,5.05
2023-05-25T23:08:31.380Z,4.32
2023-05-25T23:10:58.237Z,5.55
2023-05-25T23:13:25.162Z,4.22
2023-05-25T23:15:52.043Z,4.78
2023-05-25T23:18:18.909Z,3.63
2023-05-25T23:20:45.802Z,3.80
2023-05-25T23:23:13.141Z,4.53
2023-05-25T23:25:40.065Z,4.10
2023-05-25T23:28:06.965Z,4.70
2023-05-25T23:30:33.830Z,3.90
2023-05-25T23:33:00.989Z,4.47
2023-05-25T23:35:28.641Z,4.53
2023-05-25T23:37:57.755Z,4.63
2023-05-25T23:40:24.776Z,4.80
2023-05-25T23:42:52.203Z,4.03
2023-05-25T23:45:19.636Z,5.32
2023-05-25T23:47:46.780Z,4.57
2023-05-25T23:50:13.739Z,4.63
2023-05-25T23:52:41.605Z,5.05
2023-05-25T23:55:08.783Z,5.18
2023-05-25T23:57:36.796Z,4.40
